sensor_id;sensor_type;location;lat;lon;timestamp;temperature;humidity
30037;DHT22;36325;51.512;-0.382;2023-09-08T00:00:58;22.60;99.90
30037;DHT22;36325;51.512;-0.382;2023-09-08T00:03:26;22.60;99.90
30037;DHT22;36325;51.512;-0.382;2023-09-08T00:05:53;22.60;99.90
30037;DHT22;36325;51.512;-0.382;2023-09-08T00:08:21;22.60;99.90
30037;DHT22;36325;51.512;-0.382;2023-09-08T00:10:48;22.60;99.90
30037;DHT22;36325;51.512;-0.382;2023-09-08T00:13:17;22.50;99.90
30037;DHT22;36325;51.512;-0.382;2023-09-08T00:15:45;22.50;99.90
30037;DHT22;36325;51.512;-0.382;2023-09-08T00:18:14;22.50;99.90
30037;DHT22;36325;51.512;-0.382;2023-09-08T00:20:41;22.40;99.90
30037;DHT22;36325;51.512;-0.382;2023-09-08T00:23:09;22.30;99.90
30037;DHT22;36325;51.512;-0.382;2023-09-08T00:25:36;22.30;99.90
30037;DHT22;36325;51.512;-0.382;2023-09-08T00:28:03;22.30;99.90
30037;DHT22;36325;51.512;-0.382;2023-09-08T00:30:35;22.30;99.90
30037;DHT22;36325;51.512;-0.382;2023-09-08T00:33:02;22.30;99.90
30037;DHT22;36325;51.512;-0.382;2023-09-08T00:35:30;22.20;99.90
30037;DHT22;36325;51.512;-0.382;2023-09-08T00:37:58;22.10;99.90
30037;DHT22;36325;51.512;-0.382;2023-09-08T00:40:27;22.10;99.90
30037;DHT22;36325;51.512;-0.382;2023-09-08T00:42:55;22.00;99.90
30037;DHT22;36325;51.512;-0.382;2023-09-08T00:45:23;22.00;99.90
30037;DHT22;36325;51.512;-0.382;2023-09-08T00:47:51;22.00;99.90
30037;DHT22;36325;51.512;-0.382;2023-09-08T00:50:19;22.00;99.90
30037;DHT22;36325;51.512;-0.382;2023-09-08T00:52:48;21.90;99.90
30037;DHT22;36325;51.512;-0.382;2023-09-08T00:55:17;21.90;99.90
30037;DHT22;36325;51.512;-0.382;2023-09-08T00:57:46;21.90;99.90
30037;DHT22;36325;51.512;-0.382;2023-09-08T01:00:13;21.80;99.90
30037;DHT22;36325;51.512;-0.382;2023-09-08T01:02:41;21.80;99.90
30037;DHT22;36325;51.512;-0.382;2023-09-08T01:05:12;21.90;99.90
30037;DHT22;36325;51.512;-0.382;2023-09-08T01:07:42;21.90;99.90
30037;DHT22;36325;51.512;-0.382;2023-09-08T01:10:10;21.90;99.90
30037;DHT22;36325;51.512;-0.382;2023-09-08T01:12:40;21.80;99.90
30037;DHT22;36325;51.512;-0.382;2023-09-08T01:15:07;21.80;99.90
30037;DHT22;36325;51.512;-0.382;2023-09-08T01:17:36;21.80;99.90
30037;DHT22;36325;51.512;-0.382;2023-09-08T01:20:20;21.80;99.90
30037;DHT22;36325;51.512;-0.382;2023-09-08T01:25:23;21.80;99.90
30037;DHT22;36325;51.512;-0.382;2023-09-08T01:27:53;21.80;99.90
30037;DHT22;36325;51.512;-0.382;2023-09-08T01:30:23;21.80;99.90
30037;DHT22;36325;51.512;-0.382;2023-09-08T01:32:52;21.80;99.90
30037;DHT22;36325;51.512;-0.382;2023-09-08T01:35:21;21.90;99.90
30037;DHT22;36325;51.512;-0.382;2023-09-08T01:37:49;21.90;99.90
30037;DHT22;36325;51.512;-0.382;2023-09-08T01:40:16;21.90;99.90
30037;DHT22;36325;51.512;-0.382;2023-09-08T01:42:47;21.90;99.90
30037;DHT22;36325;51.512;-0.382;2023-09-08T01:45:15;21.90;99.90
30037;DHT22;36325;51.512;-0.382;2023-09-08T01:47:42;21.90;99.90
30037;DHT22;36325;51.512;-0.382;2023-09-08T01:50:11;21.90;99.90
30037;DHT22;36325;51.512;-0.382;2023-09-08T01:52:44;21.80;99.90
30037;DHT22;36325;51.512;-0.382;2023-09-08T01:55:16;21.80;99.90
30037;DHT22;36325;51.512;-0.382;2023-09-08T01:57:46;21.80;99.90
30037;DHT22;36325;51.512;-0.382;2023-09-08T02:00:14;21.80;99.90
30037;DHT22;36325;51.512;-0.382;2023-09-08T02:02:42;21.80;99.90
30037;DHT22;36325;51.512;-0.382;2023-09-08T02:05:09;21.80;99.90
30037;DHT22;36325;51.512;-0.382;2023-09-08T02:07:36;21.70;99.90
30037;DHT22;36325;51.512;-0.382;2023-09-08T02:10:04;21.60;99.90
30037;DHT22;36325;51.512;-0.382;2023-09-08T02:12:31;21.60;99.90
30037;DHT22;36325;51.512;-0.382;2023-09-08T02:14:59;21.60;99.90
30037;DHT22;36325;51.512;-0.382;2023-09-08T02:17:27;21.50;99.90
30037;DHT22;36325;51.512;-0.382;2023-09-08T02:19:54;21.50;99.90
30037;DHT22;36325;51.512;-0.382;2023-09-08T02:22:21;20.10;99.90
30037;DHT22;36325;51.512;-0.382;2023-09-08T02:24:50;21.50;99.90
30037;DHT22;36325;51.512;-0.382;2023-09-08T02:27:19;21.50;99.90
30037;DHT22;36325;51.512;-0.382;2023-09-08T02:29:48;21.50;99.90
30037;DHT22;36325;51.512;-0.382;2023-09-08T02:32:15;21.40;99.90
30037;DHT22;36325;51.512;-0.382;2023-09-08T02:34:43;21.40;99.90
30037;DHT22;36325;51.512;-0.382;2023-09-08T02:37:11;21.40;99.90
30037;DHT22;36325;51.512;-0.382;2023-09-08T02:39:39;21.30;99.90
30037;DHT22;36325;51.512;-0.382;2023-09-08T02:42:06;21.20;99.90
30037;DHT22;36325;51.512;-0.382;2023-09-08T02:44:34;21.10;99.90
30037;DHT22;36325;51.512;-0.382;2023-09-08T02:47:01;21.10;99.90
30037;DHT22;36325;51.512;-0.382;2023-09-08T02:49:28;21.00;99.90
30037;DHT22;36325;51.512;-0.382;2023-09-08T02:52:00;20.90;99.90
30037;DHT22;36325;51.512;-0.382;2023-09-08T02:54:27;20.90;99.90
30037;DHT22;36325;51.512;-0.382;2023-09-08T02:56:54;20.90;99.90
30037;DHT22;36325;51.512;-0.382;2023-09-08T02:59:21;20.90;99.90
30037;DHT22;36325;51.512;-0.382;2023-09-08T03:01:53;20.90;99.90
30037;DHT22;36325;51.512;-0.382;2023-09-08T03:04:22;20.90;99.90
30037;DHT22;36325;51.512;-0.382;2023-09-08T03:06:50;21.00;99.90
30037;DHT22;36325;51.512;-0.382;2023-09-08T03:09:19;21.00;99.90
30037;DHT22;36325;51.512;-0.382;2023-09-08T03:11:46;20.90;99.90
30037;DHT22;36325;51.512;-0.382;2023-09-08T03:14:13;20.90;99.90
30037;DHT22;36325;51.512;-0.382;2023-09-08T03:16:40;20.80;99.90
30037;DHT22;36325;51.512;-0.382;2023-09-08T03:19:08;20.80;99.90
30037;DHT22;36325;51.512;-0.382;2023-09-08T03:21:36;20.80;99.90
30037;DHT22;36325;51.512;-0.382;2023-09-08T03:24:03;20.70;99.90
30037;DHT22;36325;51.512;-0.382;2023-09-08T03:26:32;20.70;99.90
30037;DHT22;36325;51.512;-0.382;2023-09-08T03:28:59;20.60;99.90
30037;DHT22;36325;51.512;-0.382;2023-09-08T03:31:27;20.60;99.90
30037;DHT22;36325;51.512;-0.382;2023-09-08T03:33:55;20.50;99.90
30037;DHT22;36325;51.512;-0.382;2023-09-08T03:36:23;20.50;99.90
30037;DHT22;36325;51.512;-0.382;2023-09-08T03:38:51;20.50;99.90
30037;DHT22;36325;51.512;-0.382;2023-09-08T03:41:19;20.50;99.90
30037;DHT22;36325;51.512;-0.382;2023-09-08T03:43:46;20.50;99.90
30037;DHT22;36325;51.512;-0.382;2023-09-08T03:46:17;20.60;99.90
30037;DHT22;36325;51.512;-0.382;2023-09-08T03:48:44;20.60;99.90
30037;DHT22;36325;51.512;-0.382;2023-09-08T03:51:12;20.70;99.90
30037;DHT22;36325;51.512;-0.382;2023-09-08T03:53:39;20.80;99.90
30037;DHT22;36325;51.512;-0.382;2023-09-08T03:56:08;20.80;99.90
30037;DHT22;36325;51.512;-0.382;2023-09-08T03:58:35;20.80;99.90
30037;DHT22;36325;51.512;-0.382;2023-09-08T04:01:05;20.80;99.90
30037;DHT22;36325;51.512;-0.382;2023-09-08T04:03:32;20.80;99.90
30037;DHT22;36325;51.512;-0.382;2023-09-08T04:06:00;20.80;99.90
30037;DHT22;36325;51.512;-0.382;2023-09-08T04:08:27;20.70;99.90
30037;DHT22;36325;51.512;-0.382;2023-09-08T04:10:55;20.70;99.90
30037;DHT22;36325;51.512;-0.382;2023-09-08T04:13:22;20.80;99.90
30037;DHT22;36325;51.512;-0.382;2023-09-08T04:15:51;20.80;99.90
30037;DHT22;36325;51.512;-0.382;2023-09-08T04:18:18;20.80;99.90
30037;DHT22;36325;51.512;-0.382;2023-09-08T04:20:46;20.80;99.90
30037;DHT22;36325;51.512;-0.382;2023-09-08T04:23:14;20.70;99.90
30037;DHT22;36325;51.512;-0.382;2023-09-08T04:25:42;20.70;99.90
30037;DHT22;36325;51.512;-0.382;2023-09-08T04:28:09;20.70;99.90
30037;DHT22;36325;51.512;-0.382;2023-09-08T04:30:37;20.70;99.90
30037;DHT22;36325;51.512;-0.382;2023-09-08T04:33:05;20.80;99.90
30037;DHT22;36325;51.512;-0.382;2023-09-08T04:35:33;20.80;99.90
30037;DHT22;36325;51.512;-0.382;2023-09-08T04:38:00;20.80;99.90
30037;DHT22;36325;51.512;-0.382;2023-09-08T04:40:30;20.80;99.90
30037;DHT22;36325;51.512;-0.382;2023-09-08T04:42:57;20.80;99.90
30037;DHT22;36325;51.512;-0.382;2023-09-08T04:45:24;20.80;99.90
30037;DHT22;36325;51.512;-0.382;2023-09-08T04:47:52;20.70;99.90
30037;DHT22;36325;51.512;-0.382;2023-09-08T04:50:20;20.70;99.90
30037;DHT22;36325;51.512;-0.382;2023-09-08T04:52:47;20.60;99.90
30037;DHT22;36325;51.512;-0.382;2023-09-08T04:55:16;20.60;99.90
30037;DHT22;36325;51.512;-0.382;2023-09-08T04:57:45;20.50;99.90
30037;DHT22;36325;51.512;-0.382;2023-09-08T05:00:12;20.50;99.90
30037;DHT22;36325;51.512;-0.382;2023-09-08T05:02:40;20.40;99.90
30037;DHT22;36325;51.512;-0.382;2023-09-08T05:05:10;20.50;99.90
30037;DHT22;36325;51.512;-0.382;2023-09-08T05:07:38;20.50;99.90
30037;DHT22;36325;51.512;-0.382;2023-09-08T05:10:05;20.50;99.90
30037;DHT22;36325;51.512;-0.382;2023-09-08T05:12:35;20.40;99.90
30037;DHT22;36325;51.512;-0.382;2023-09-08T05:15:02;20.40;99.90
30037;DHT22;36325;51.512;-0.382;2023-09-08T05:17:38;20.40;99.90
30037;DHT22;36325;51.512;-0.382;2023-09-08T05:20:06;20.40;99.90
30037;DHT22;36325;51.512;-0.382;2023-09-08T05:22:34;20.50;99.90
30037;DHT22;36325;51.512;-0.382;2023-09-08T05:25:06;20.50;99.90
30037;DHT22;36325;51.512;-0.382;2023-09-08T05:27:34;20.50;99.90
30037;DHT22;36325;51.512;-0.382;2023-09-08T05:30:01;20.50;99.90
30037;DHT22;36325;51.512;-0.382;2023-09-08T05:32:30;20.50;99.90
30037;DHT22;36325;51.512;-0.382;2023-09-08T05:34:59;20.50;99.90
30037;DHT22;36325;51.512;-0.382;2023-09-08T05:37:27;20.40;99.90
30037;DHT22;36325;51.512;-0.382;2023-09-08T05:39:54;20.40;99.90
30037;DHT22;36325;51.512;-0.382;2023-09-08T05:42:22;20.50;99.90
30037;DHT22;36325;51.512;-0.382;2023-09-08T05:44:49;20.50;99.90
30037;DHT22;36325;51.512;-0.382;2023-09-08T05:47:17;20.50;99.90
30037;DHT22;36325;51.512;-0.382;2023-09-08T05:49:44;20.50;99.90
30037;DHT22;36325;51.512;-0.382;2023-09-08T05:52:12;20.50;99.90
30037;DHT22;36325;51.512;-0.382;2023-09-08T05:54:41;20.50;99.90
30037;DHT22;36325;51.512;-0.382;2023-09-08T05:57:08;20.60;99.90
30037;DHT22;36325;51.512;-0.382;2023-09-08T05:59:36;20.70;99.90
30037;DHT22;36325;51.512;-0.382;2023-09-08T06:02:04;20.70;99.90
30037;DHT22;36325;51.512;-0.382;2023-09-08T06:04:32;20.80;99.90
30037;DHT22;36325;51.512;-0.382;2023-09-08T06:07:03;20.80;99.90
30037;DHT22;36325;51.512;-0.382;2023-09-08T06:09:32;20.80;99.90
30037;DHT22;36325;51.512;-0.382;2023-09-08T06:12:00;20.90;99.90
30037;DHT22;36325;51.512;-0.382;2023-09-08T06:14:29;20.80;99.90
30037;DHT22;36325;51.512;-0.382;2023-09-08T06:16:57;20.90;99.90
30037;DHT22;36325;51.512;-0.382;2023-09-08T06:19:24;20.90;99.90
30037;DHT22;36325;51.512;-0.382;2023-09-08T06:21:55;20.90;99.90
30037;DHT22;36325;51.512;-0.382;2023-09-08T06:24:24;20.90;99.90
30037;DHT22;36325;51.512;-0.382;2023-09-08T06:26:52;20.90;99.90
30037;DHT22;36325;51.512;-0.382;2023-09-08T06:29:21;20.90;99.90
30037;DHT22;36325;51.512;-0.382;2023-09-08T06:31:48;20.90;99.90
30037;DHT22;36325;51.512;-0.382;2023-09-08T06:34:15;20.90;99.90
30037;DHT22;36325;51.512;-0.382;2023-09-08T06:36:43;20.80;99.90
30037;DHT22;36325;51.512;-0.382;2023-09-08T06:39:12;20.90;99.90
30037;DHT22;36325;51.512;-0.382;2023-09-08T06:41:40;21.00;99.90
30037;DHT22;36325;51.512;-0.382;2023-09-08T06:44:10;21.00;99.90
30037;DHT22;36325;51.512;-0.382;2023-09-08T06:46:38;21.10;99.90
30037;DHT22;36325;51.512;-0.382;2023-09-08T06:49:05;21.10;99.90
30037;DHT22;36325;51.512;-0.382;2023-09-08T06:51:33;21.10;99.90
30037;DHT22;36325;51.512;-0.382;2023-09-08T06:54:01;21.20;99.90
30037;DHT22;36325;51.512;-0.382;2023-09-08T06:56:35;21.20;99.90
30037;DHT22;36325;51.512;-0.382;2023-09-08T06:59:05;21.30;99.90
30037;DHT22;36325;51.512;-0.382;2023-09-08T07:01:33;21.30;99.90
30037;DHT22;36325;51.512;-0.382;2023-09-08T07:04:01;21.40;99.90
30037;DHT22;36325;51.512;-0.382;2023-09-08T07:06:29;21.50;99.90
30037;DHT22;36325;51.512;-0.382;2023-09-08T07:08:58;21.60;99.90
30037;DHT22;36325;51.512;-0.382;2023-09-08T07:11:26;21.70;99.90
30037;DHT22;36325;51.512;-0.382;2023-09-08T07:13:54;21.80;99.90
30037;DHT22;36325;51.512;-0.382;2023-09-08T07:16:21;22.00;99.90
30037;DHT22;36325;51.512;-0.382;2023-09-08T07:18:50;22.10;99.90
30037;DHT22;36325;51.512;-0.382;2023-09-08T07:21:18;22.20;99.90
30037;DHT22;36325;51.512;-0.382;2023-09-08T07:23:46;22.40;99.90
30037;DHT22;36325;51.512;-0.382;2023-09-08T07:26:14;22.50;99.90
30037;DHT22;36325;51.512;-0.382;2023-09-08T07:28:46;22.70;99.90
30037;DHT22;36325;51.512;-0.382;2023-09-08T07:31:15;22.80;99.90
30037;DHT22;36325;51.512;-0.382;2023-09-08T07:33:45;22.80;99.90
30037;DHT22;36325;51.512;-0.382;2023-09-08T07:36:13;23.00;99.90
30037;DHT22;36325;51.512;-0.382;2023-09-08T07:38:43;23.10;99.90
30037;DHT22;36325;51.512;-0.382;2023-09-08T07:41:11;23.20;99.90
30037;DHT22;36325;51.512;-0.382;2023-09-08T07:43:40;24.10;99.90
30037;DHT22;36325;51.512;-0.382;2023-09-08T07:46:12;24.00;99.90
30037;DHT22;36325;51.512;-0.382;2023-09-08T07:48:41;24.50;99.90
30037;DHT22;36325;51.512;-0.382;2023-09-08T07:51:08;25.00;99.90
30037;DHT22;36325;51.512;-0.382;2023-09-08T07:53:42;25.40;99.90
30037;DHT22;36325;51.512;-0.382;2023-09-08T07:56:11;26.30;99.90
30037;DHT22;36325;51.512;-0.382;2023-09-08T07:58:38;26.30;99.90
30037;DHT22;36325;51.512;-0.382;2023-09-08T08:01:07;26.70;99.90
30037;DHT22;36325;51.512;-0.382;2023-09-08T08:03:34;26.90;99.90
30037;DHT22;36325;51.512;-0.382;2023-09-08T08:06:04;26.90;99.90
30037;DHT22;36325;51.512;-0.382;2023-09-08T08:08:32;26.80;99.90
30037;DHT22;36325;51.512;-0.382;2023-09-08T08:11:16;26.80;99.90
30037;DHT22;36325;51.512;-0.382;2023-09-08T08:13:45;26.70;99.90
30037;DHT22;36325;51.512;-0.382;2023-09-08T08:16:13;26.80;99.90
30037;DHT22;36325;51.512;-0.382;2023-09-08T08:18:41;27.00;99.90
30037;DHT22;36325;51.512;-0.382;2023-09-08T08:21:08;27.10;99.90
30037;DHT22;36325;51.512;-0.382;2023-09-08T08:23:37;27.40;99.90
30037;DHT22;36325;51.512;-0.382;2023-09-08T08:26:05;27.90;99.90
30037;DHT22;36325;51.512;-0.382;2023-09-08T08:28:35;28.30;99.90
30037;DHT22;36325;51.512;-0.382;2023-09-08T08:31:04;28.60;99.90
30037;DHT22;36325;51.512;-0.382;2023-09-08T08:33:32;28.90;99.90
30037;DHT22;36325;51.512;-0.382;2023-09-08T08:36:00;29.10;99.90
30037;DHT22;36325;51.512;-0.382;2023-09-08T08:38:29;29.30;99.90
30037;DHT22;36325;51.512;-0.382;2023-09-08T08:41:02;29.40;99.90
30037;DHT22;36325;51.512;-0.382;2023-09-08T08:43:32;29.50;99.90
30037;DHT22;36325;51.512;-0.382;2023-09-08T08:46:04;29.80;99.90
30037;DHT22;36325;51.512;-0.382;2023-09-08T08:48:35;30.00;99.90
30037;DHT22;36325;51.512;-0.382;2023-09-08T08:51:03;29.90;99.90
30037;DHT22;36325;51.512;-0.382;2023-09-08T08:53:32;29.90;99.90
30037;DHT22;36325;51.512;-0.382;2023-09-08T08:56:03;29.80;99.90
30037;DHT22;36325;51.512;-0.382;2023-09-08T08:58:38;29.70;99.90
30037;DHT22;36325;51.512;-0.382;2023-09-08T09:01:11;29.60;99.90
30037;DHT22;36325;51.512;-0.382;2023-09-08T09:03:43;29.30;99.90
30037;DHT22;36325;51.512;-0.382;2023-09-08T09:06:14;28.90;99.90
30037;DHT22;36325;51.512;-0.382;2023-09-08T09:08:43;28.70;99.90
30037;DHT22;36325;51.512;-0.382;2023-09-08T09:11:11;28.60;99.90
30037;DHT22;36325;51.512;-0.382;2023-09-08T09:16:08;28.60;99.90
30037;DHT22;36325;51.512;-0.382;2023-09-08T09:19:08;28.70;99.90
30037;DHT22;36325;51.512;-0.382;2023-09-08T09:21:45;28.80;99.90
30037;DHT22;36325;51.512;-0.382;2023-09-08T09:24:30;28.90;99.90
30037;DHT22;36325;51.512;-0.382;2023-09-08T09:27:00;29.00;99.90
30037;DHT22;36325;51.512;-0.382;2023-09-08T09:29:29;29.30;99.90
30037;DHT22;36325;51.512;-0.382;2023-09-08T09:32:03;29.30;99.90
30037;DHT22;36325;51.512;-0.382;2023-09-08T09:34:31;29.40;99.90
30037;DHT22;36325;51.512;-0.382;2023-09-08T09:36:59;29.80;99.90
30037;DHT22;36325;51.512;-0.382;2023-09-08T09:39:37;30.30;99.90
30037;DHT22;36325;51.512;-0.382;2023-09-08T09:42:04;30.70;99.90
30037;DHT22;36325;51.512;-0.382;2023-09-08T09:47:00;31.80;99.90
30037;DHT22;36325;51.512;-0.382;2023-09-08T09:49:31;31.90;99.90
30037;DHT22;36325;51.512;-0.382;2023-09-08T09:52:00;31.90;99.90
30037;DHT22;36325;51.512;-0.382;2023-09-08T09:54:29;31.70;99.90
30037;DHT22;36325;51.512;-0.382;2023-09-08T09:59:26;31.50;99.90
30037;DHT22;36325;51.512;-0.382;2023-09-08T10:01:54;31.50;99.90
30037;DHT22;36325;51.512;-0.382;2023-09-08T10:04:27;31.50;99.90
30037;DHT22;36325;51.512;-0.382;2023-09-08T10:06:56;31.70;99.90
30037;DHT22;36325;51.512;-0.382;2023-09-08T10:09:26;32.00;99.90
30037;DHT22;36325;51.512;-0.382;2023-09-08T10:11:54;32.20;99.90
30037;DHT22;36325;51.512;-0.382;2023-09-08T10:14:27;32.60;99.90
30037;DHT22;36325;51.512;-0.382;2023-09-08T10:17:00;32.90;99.90
30037;DHT22;36325;51.512;-0.382;2023-09-08T10:19:30;33.00;99.90
30037;DHT22;36325;51.512;-0.382;2023-09-08T10:22:00;33.00;99.90
30037;DHT22;36325;51.512;-0.382;2023-09-08T10:24:34;33.40;99.90
30037;DHT22;36325;51.512;-0.382;2023-09-08T10:27:10;33.60;99.90
30037;DHT22;36325;51.512;-0.382;2023-09-08T10:29:40;33.60;99.90
30037;DHT22;36325;51.512;-0.382;2023-09-08T10:32:10;33.40;99.90
30037;DHT22;36325;51.512;-0.382;2023-09-08T10:34:46;33.30;99.90
30037;DHT22;36325;51.512;-0.382;2023-09-08T10:37:26;33.60;99.90
30037;DHT22;36325;51.512;-0.382;2023-09-08T10:42:49;34.20;99.90
30037;DHT22;36325;51.512;-0.382;2023-09-08T10:45:18;34.20;99.90
30037;DHT22;36325;51.512;-0.382;2023-09-08T10:50:26;34.20;99.90
30037;DHT22;36325;51.512;-0.382;2023-09-08T10:53:09;34.00;99.90
30037;DHT22;36325;51.512;-0.382;2023-09-08T10:55:45;33.90;99.90
30037;DHT22;36325;51.512;-0.382;2023-09-08T10:58:37;34.10;99.90
30037;DHT22;36325;51.512;-0.382;2023-09-08T11:01:18;34.80;99.90
30037;DHT22;36325;51.512;-0.382;2023-09-08T11:03:48;35.20;99.90
30037;DHT22;36325;51.512;-0.382;2023-09-08T11:06:18;35.00;99.90
30037;DHT22;36325;51.512;-0.382;2023-09-08T11:08:49;34.80;99.90
30037;DHT22;36325;51.512;-0.382;2023-09-08T11:11:20;34.70;99.90
30037;DHT22;36325;51.512;-0.382;2023-09-08T11:13:47;34.50;99.90
30037;DHT22;36325;51.512;-0.382;2023-09-08T11:16:16;34.30;99.90
30037;DHT22;36325;51.512;-0.382;2023-09-08T11:18:51;34.20;99.90
30037;DHT22;36325;51.512;-0.382;2023-09-08T11:23:49;34.00;99.90
30037;DHT22;36325;51.512;-0.382;2023-09-08T11:26:19;34.00;99.90
30037;DHT22;36325;51.512;-0.382;2023-09-08T11:28:46;34.00;99.90
30037;DHT22;36325;51.512;-0.382;2023-09-08T11:31:20;34.10;99.90
30037;DHT22;36325;51.512;-0.382;2023-09-08T11:33:48;34.20;99.90
30037;DHT22;36325;51.512;-0.382;2023-09-08T11:36:16;34.40;99.90
30037;DHT22;36325;51.512;-0.382;2023-09-08T11:38:43;34.10;99.90
30037;DHT22;36325;51.512;-0.382;2023-09-08T11:41:14;33.90;99.90
30037;DHT22;36325;51.512;-0.382;2023-09-08T11:43:41;33.70;99.90
30037;DHT22;36325;51.512;-0.382;2023-09-08T11:46:08;33.80;99.90
30037;DHT22;36325;51.512;-0.382;2023-09-08T11:48:38;33.70;99.90
30037;DHT22;36325;51.512;-0.382;2023-09-08T11:51:09;33.70;99.90
30037;DHT22;36325;51.512;-0.382;2023-09-08T11:53:37;33.60;99.90
30037;DHT22;36325;51.512;-0.382;2023-09-08T11:56:07;33.60;99.90
30037;DHT22;36325;51.512;-0.382;2023-09-08T11:58:34;33.70;99.90
30037;DHT22;36325;51.512;-0.382;2023-09-08T12:01:03;33.50;99.90
30037;DHT22;36325;51.512;-0.382;2023-09-08T12:03:33;33.60;99.90
30037;DHT22;36325;51.512;-0.382;2023-09-08T12:06:02;33.40;99.90
30037;DHT22;36325;51.512;-0.382;2023-09-08T12:08:30;33.30;99.90
30037;DHT22;36325;51.512;-0.382;2023-09-08T12:10:58;33.40;99.90
30037;DHT22;36325;51.512;-0.382;2023-09-08T12:13:26;33.40;99.90
30037;DHT22;36325;51.512;-0.382;2023-09-08T12:15:55;33.40;99.90
30037;DHT22;36325;51.512;-0.382;2023-09-08T12:18:38;32.80;99.90
30037;DHT22;36325;51.512;-0.382;2023-09-08T12:21:06;33.30;99.90
30037;DHT22;36325;51.512;-0.382;2023-09-08T12:23:50;33.20;99.90
30037;DHT22;36325;51.512;-0.382;2023-09-08T12:26:18;33.20;99.90
30037;DHT22;36325;51.512;-0.382;2023-09-08T12:28:47;33.20;99.90
30037;DHT22;36325;51.512;-0.382;2023-09-08T12:31:18;33.30;99.90
30037;DHT22;36325;51.512;-0.382;2023-09-08T12:33:47;33.30;99.90
30037;DHT22;36325;51.512;-0.382;2023-09-08T12:36:19;33.40;99.90
30037;DHT22;36325;51.512;-0.382;2023-09-08T12:38:48;33.70;99.90
30037;DHT22;36325;51.512;-0.382;2023-09-08T12:41:24;33.90;99.90
30037;DHT22;36325;51.512;-0.382;2023-09-08T12:43:57;34.10;99.90
30037;DHT22;36325;51.512;-0.382;2023-09-08T12:46:25;34.10;99.90
30037;DHT22;36325;51.512;-0.382;2023-09-08T12:49:07;34.10;99.90
30037;DHT22;36325;51.512;-0.382;2023-09-08T12:51:36;34.40;99.90
30037;DHT22;36325;51.512;-0.382;2023-09-08T12:54:05;34.50;99.90
30037;DHT22;36325;51.512;-0.382;2023-09-08T12:56:32;34.70;99.90
30037;DHT22;36325;51.512;-0.382;2023-09-08T12:59:00;34.80;99.90
30037;DHT22;36325;51.512;-0.382;2023-09-08T13:01:28;34.70;99.90
30037;DHT22;36325;51.512;-0.382;2023-09-08T13:03:56;34.60;99.90
30037;DHT22;36325;51.512;-0.382;2023-09-08T13:06:23;34.70;99.90
30037;DHT22;36325;51.512;-0.382;2023-09-08T13:08:58;34.70;99.90
30037;DHT22;36325;51.512;-0.382;2023-09-08T13:11:29;34.60;99.90
30037;DHT22;36325;51.512;-0.382;2023-09-08T13:13:56;34.80;99.90
30037;DHT22;36325;51.512;-0.382;2023-09-08T13:16:24;33.80;99.90
30037;DHT22;36325;51.512;-0.382;2023-09-08T13:18:52;34.80;99.90
30037;DHT22;36325;51.512;-0.382;2023-09-08T13:21:20;34.60;99.90
30037;DHT22;36325;51.512;-0.382;2023-09-08T13:23:50;34.50;99.90
30037;DHT22;36325;51.512;-0.382;2023-09-08T13:31:15;34.80;99.90
30037;DHT22;36325;51.512;-0.382;2023-09-08T13:33:43;35.00;99.90
30037;DHT22;36325;51.512;-0.382;2023-09-08T13:36:12;35.20;99.90
30037;DHT22;36325;51.512;-0.382;2023-09-08T13:38:40;35.20;99.90
30037;DHT22;36325;51.512;-0.382;2023-09-08T13:41:07;34.80;99.90
30037;DHT22;36325;51.512;-0.382;2023-09-08T13:43:35;34.40;99.90
30037;DHT22;36325;51.512;-0.382;2023-09-08T13:46:02;34.10;99.90
30037;DHT22;36325;51.512;-0.382;2023-09-08T13:48:30;34.20;99.90
30037;DHT22;36325;51.512;-0.382;2023-09-08T13:51:03;34.20;99.90
30037;DHT22;36325;51.512;-0.382;2023-09-08T13:53:44;34.60;99.90
30037;DHT22;36325;51.512;-0.382;2023-09-08T13:56:13;34.20;99.90
30037;DHT22;36325;51.512;-0.382;2023-09-08T13:58:45;35.70;99.90
30037;DHT22;36325;51.512;-0.382;2023-09-08T14:01:17;36.00;99.90
30037;DHT22;36325;51.512;-0.382;2023-09-08T14:03:52;35.80;99.90
30037;DHT22;36325;51.512;-0.382;2023-09-08T14:06:29;35.70;99.90
30037;DHT22;36325;51.512;-0.382;2023-09-08T14:09:03;35.30;99.90
30037;DHT22;36325;51.512;-0.382;2023-09-08T14:11:34;35.20;99.90
30037;DHT22;36325;51.512;-0.382;2023-09-08T14:14:22;35.00;99.90
30037;DHT22;36325;51.512;-0.382;2023-09-08T14:16:52;35.10;99.90
30037;DHT22;36325;51.512;-0.382;2023-09-08T14:19:29;35.40;99.90
30037;DHT22;36325;51.512;-0.382;2023-09-08T14:21:58;35.50;99.90
30037;DHT22;36325;51.512;-0.382;2023-09-08T14:24:25;35.40;99.90
30037;DHT22;36325;51.512;-0.382;2023-09-08T14:26:57;35.20;99.90
30037;DHT22;36325;51.512;-0.382;2023-09-08T14:31:52;34.80;99.90
30037;DHT22;36325;51.512;-0.382;2023-09-08T14:34:21;34.60;99.90
30037;DHT22;36325;51.512;-0.382;2023-09-08T14:37:02;34.60;99.90
30037;DHT22;36325;51.512;-0.382;2023-09-08T14:39:31;34.50;99.90
30037;DHT22;36325;51.512;-0.382;2023-09-08T14:47:01;34.60;99.90
30037;DHT22;36325;51.512;-0.382;2023-09-08T14:51:56;35.30;99.90
30037;DHT22;36325;51.512;-0.382;2023-09-08T14:54:28;35.50;99.90
30037;DHT22;36325;51.512;-0.382;2023-09-08T14:56:56;35.20;99.90
30037;DHT22;36325;51.512;-0.382;2023-09-08T14:59:26;36.60;99.90
30037;DHT22;36325;51.512;-0.382;2023-09-08T15:01:54;34.50;99.90
30037;DHT22;36325;51.512;-0.382;2023-09-08T15:04:23;34.30;99.90
30037;DHT22;36325;51.512;-0.382;2023-09-08T15:07:05;34.10;99.90
30037;DHT22;36325;51.512;-0.382;2023-09-08T15:09:33;33.80;99.90
30037;DHT22;36325;51.512;-0.382;2023-09-08T15:12:00;33.60;99.90
30037;DHT22;36325;51.512;-0.382;2023-09-08T15:16:56;33.70;99.90
30037;DHT22;36325;51.512;-0.382;2023-09-08T15:19:25;33.80;99.90
30037;DHT22;36325;51.512;-0.382;2023-09-08T15:21:53;34.10;99.90
30037;DHT22;36325;51.512;-0.382;2023-09-08T15:24:20;34.40;99.90
30037;DHT22;36325;51.512;-0.382;2023-09-08T15:26:48;34.40;99.90
30037;DHT22;36325;51.512;-0.382;2023-09-08T15:31:47;34.10;99.90
30037;DHT22;36325;51.512;-0.382;2023-09-08T15:34:16;34.10;99.90
30037;DHT22;36325;51.512;-0.382;2023-09-08T15:36:44;33.90;99.90
30037;DHT22;36325;51.512;-0.382;2023-09-08T15:39:15;34.00;99.90
30037;DHT22;36325;51.512;-0.382;2023-09-08T15:41:46;34.20;99.90
30037;DHT22;36325;51.512;-0.382;2023-09-08T15:44:14;34.50;99.90
30037;DHT22;36325;51.512;-0.382;2023-09-08T15:46:41;34.80;99.90
30037;DHT22;36325;51.512;-0.382;2023-09-08T15:49:11;34.90;99.90
30037;DHT22;36325;51.512;-0.382;2023-09-08T15:51:39;35.40;99.90
30037;DHT22;36325;51.512;-0.382;2023-09-08T15:54:07;34.80;99.90
30037;DHT22;36325;51.512;-0.382;2023-09-08T15:56:36;34.60;99.90
30037;DHT22;36325;51.512;-0.382;2023-09-08T15:59:05;34.40;99.90
30037;DHT22;36325;51.512;-0.382;2023-09-08T16:01:32;34.00;99.90
30037;DHT22;36325;51.512;-0.382;2023-09-08T16:04:03;33.70;99.90
30037;DHT22;36325;51.512;-0.382;2023-09-08T16:06:35;33.40;99.90